Bowman Field (LOU)

 

Airport Diagram
Current Weather/Forecast (VFR Conditions)
METAR KLOU 071253Z 23003KT 10SM CLR 10/05 A3009 RMK AO2 SLP190 T01000050
TAF

Airport Information

All Charts
General
Chart Name View
AIRPORT DIAGRAM
TAKEOFF MINIMUMS
ALTERNATE MINIMUMS
HOT SPOT

Arrivals
Chart Name Download
CHERI FOUR
DARBY SEVEN
REDSTONE SIX

Approaches
Chart Name Download
RNAV (GPS) RWY 24
RNAV (GPS) RWY 33
NDB RWY 33


Airport Statistics
Departures Arrivals Local
All Collected Stats since June 2016: 165 114 26
2021 Stats: 34 23 1
May Stats: 1 0 0

Inbound Traffic (Arrivals) - 0

No inbound traffic.


Outbound Traffic (Departures) - 0

No outbound traffic.


Local Traffic (Pattern) - 0

No local traffic.